sensor_id;sensor_type;location;lat;lon;timestamp;pressure;altitude;pressure_sealevel;temperature;humidity
81905;BME280;71370;-33.792;151.032;2023-07-09T09:46:50;101309.49;;;16.98;53.07
81905;BME280;71370;-33.792;151.032;2023-07-09T09:48:00;101309.03;;;17.07;51.95
81905;BME280;71370;-33.792;151.032;2023-07-09T09:49:09;101305.50;;;17.07;51.64
81905;BME280;71370;-33.792;151.032;2023-07-09T09:50:18;101309.38;;;17.02;51.59
81905;BME280;71370;-33.792;151.032;2023-07-09T09:51:26;101307.55;;;16.98;51.27
81905;BME280;71370;-33.792;151.032;2023-07-09T09:52:33;101306.78;;;16.94;51.23
81905;BME280;71370;-33.792;151.032;2023-07-09T09:53:45;101307.79;;;16.90;51.14
81905;BME280;71370;-33.792;151.032;2023-07-09T09:54:55;101306.11;;;16.87;51.02
81905;BME280;71370;-33.792;151.032;2023-07-09T09:56:05;101306.39;;;16.84;51.11
81905;BME280;71370;-33.792;151.032;2023-07-09T09:57:21;101299.68;;;16.82;51.17
81905;BME280;71370;-33.792;151.032;2023-07-09T09:58:30;101301.35;;;16.79;51.04
81905;BME280;71370;-33.792;151.032;2023-07-09T09:59:41;101308.80;;;16.79;51.07
81905;BME280;71370;-33.792;151.032;2023-07-09T10:00:53;101313.48;;;16.77;50.96
81905;BME280;71370;-33.792;151.032;2023-07-09T10:02:16;101314.08;;;16.75;50.92
81905;BME280;71370;-33.792;151.032;2023-07-09T10:03:35;101314.48;;;16.73;51.05
81905;BME280;71370;-33.792;151.032;2023-07-09T10:04:46;101314.73;;;16.71;50.98
81905;BME280;71370;-33.792;151.032;2023-07-09T10:05:57;101317.09;;;16.69;51.08
81905;BME280;71370;-33.792;151.032;2023-07-09T10:07:08;101320.49;;;16.68;51.12
81905;BME280;71370;-33.792;151.032;2023-07-09T10:08:45;101325.13;;;16.68;51.11
81905;BME280;71370;-33.792;151.032;2023-07-09T10:09:56;101322.30;;;16.67;51.04
81905;BME280;71370;-33.792;151.032;2023-07-09T10:11:36;101319.81;;;16.67;51.06
81905;BME280;71370;-33.792;151.032;2023-07-09T10:12:58;101321.62;;;16.66;51.06
81905;BME280;71370;-33.792;151.032;2023-07-09T10:15:41;101323.04;;;16.66;51.05
81905;BME280;71370;-33.792;151.032;2023-07-09T10:16:50;101324.99;;;16.66;51.09
81905;BME280;71370;-33.792;151.032;2023-07-09T10:19:37;101326.11;;;16.64;51.15
81905;BME280;71370;-33.792;151.032;2023-07-09T10:21:37;101321.88;;;16.63;51.13
81905;BME280;71370;-33.792;151.032;2023-07-09T10:23:13;101327.53;;;16.64;51.19
81905;BME280;71370;-33.792;151.032;2023-07-09T10:26:31;101332.15;;;16.64;51.26
81905;BME280;71370;-33.792;151.032;2023-07-09T10:28:00;101327.93;;;16.63;51.21
81905;BME280;71370;-33.792;151.032;2023-07-09T10:33:49;101331.50;;;16.62;51.25
81905;BME280;71370;-33.792;151.032;2023-07-09T10:35:18;101327.78;;;16.61;51.19
81905;BME280;71370;-33.792;151.032;2023-07-09T10:36:44;101328.15;;;16.61;51.18
81905;BME280;71370;-33.792;151.032;2023-07-09T10:37:58;101329.03;;;16.61;51.19
81905;BME280;71370;-33.792;151.032;2023-07-09T10:39:29;101323.92;;;16.60;51.23
81905;BME280;71370;-33.792;151.032;2023-07-09T10:40:42;101329.97;;;16.60;51.16
81905;BME280;71370;-33.792;151.032;2023-07-09T10:41:51;101333.52;;;16.59;51.27
81905;BME280;71370;-33.792;151.032;2023-07-09T10:43:04;101335.31;;;16.59;51.15
81905;BME280;71370;-33.792;151.032;2023-07-09T10:44:31;101336.20;;;16.59;51.24
81905;BME280;71370;-33.792;151.032;2023-07-09T10:45:54;101335.30;;;16.60;51.08
81905;BME280;71370;-33.792;151.032;2023-07-09T10:47:06;101342.56;;;16.60;51.20
81905;BME280;71370;-33.792;151.032;2023-07-09T10:48:28;101344.34;;;16.60;51.14
81905;BME280;71370;-33.792;151.032;2023-07-09T10:49:40;101344.17;;;16.60;51.17
81905;BME280;71370;-33.792;151.032;2023-07-09T10:50:54;101351.62;;;16.61;51.19
81905;BME280;71370;-33.792;151.032;2023-07-09T10:53:44;101358.58;;;16.59;51.28
81905;BME280;71370;-33.792;151.032;2023-07-09T10:56:56;101363.59;;;16.58;51.64
81905;BME280;71370;-33.792;151.032;2023-07-09T10:58:22;101361.49;;;16.56;51.67
81905;BME280;71370;-33.792;151.032;2023-07-09T10:59:37;101362.36;;;16.57;51.65
81905;BME280;71370;-33.792;151.032;2023-07-09T11:00:47;101360.45;;;16.56;51.68
81905;BME280;71370;-33.792;151.032;2023-07-09T11:04:45;101355.14;;;16.55;51.57
81905;BME280;71370;-33.792;151.032;2023-07-09T11:05:54;101356.38;;;16.55;51.59
81905;BME280;71370;-33.792;151.032;2023-07-09T11:07:04;101353.02;;;16.54;51.57
81905;BME280;71370;-33.792;151.032;2023-07-09T11:08:17;101350.73;;;16.54;51.44
81905;BME280;71370;-33.792;151.032;2023-07-09T11:09:39;101350.55;;;16.54;51.53
81905;BME280;71370;-33.792;151.032;2023-07-09T11:10:57;101346.68;;;16.53;51.45
81905;BME280;71370;-33.792;151.032;2023-07-09T11:12:14;101345.63;;;16.52;51.41
81905;BME280;71370;-33.792;151.032;2023-07-09T11:13:28;101339.98;;;16.51;51.40
81905;BME280;71370;-33.792;151.032;2023-07-09T11:15:12;101340.50;;;16.51;51.26
81905;BME280;71370;-33.792;151.032;2023-07-09T11:16:25;101340.86;;;16.51;51.27
81905;BME280;71370;-33.792;151.032;2023-07-09T11:17:38;101339.64;;;16.50;51.25
81905;BME280;71370;-33.792;151.032;2023-07-09T11:18:55;101341.58;;;16.51;51.14
81905;BME280;71370;-33.792;151.032;2023-07-09T11:20:18;101338.06;;;16.50;51.18
81905;BME280;71370;-33.792;151.032;2023-07-09T11:21:26;101340.02;;;16.50;51.23
81905;BME280;71370;-33.792;151.032;2023-07-09T11:22:38;101340.00;;;16.50;51.11
81905;BME280;71370;-33.792;151.032;2023-07-09T11:23:56;101347.29;;;16.50;51.10
81905;BME280;71370;-33.792;151.032;2023-07-09T11:25:13;101350.71;;;16.48;51.12
81905;BME280;71370;-33.792;151.032;2023-07-09T11:26:27;101347.70;;;16.48;51.09
81905;BME280;71370;-33.792;151.032;2023-07-09T11:27:49;101353.73;;;16.48;51.12
81905;BME280;71370;-33.792;151.032;2023-07-09T11:30:20;101352.70;;;16.47;51.07
81905;BME280;71370;-33.792;151.032;2023-07-09T11:31:43;101352.35;;;16.47;50.97
81905;BME280;71370;-33.792;151.032;2023-07-09T11:33:03;101351.67;;;16.46;51.06
81905;BME280;71370;-33.792;151.032;2023-07-09T11:34:18;101353.63;;;16.45;51.04
81905;BME280;71370;-33.792;151.032;2023-07-09T11:35:29;101353.30;;;16.45;51.21
81905;BME280;71370;-33.792;151.032;2023-07-09T11:36:49;101355.22;;;16.46;51.29
81905;BME280;71370;-33.792;151.032;2023-07-09T11:38:08;101352.94;;;16.45;51.30
81905;BME280;71370;-33.792;151.032;2023-07-09T11:40:27;101353.27;;;16.46;51.32
81905;BME280;71370;-33.792;151.032;2023-07-09T11:41:37;101352.70;;;16.47;51.34
81905;BME280;71370;-33.792;151.032;2023-07-09T11:43:24;101354.19;;;16.51;51.15
81905;BME280;71370;-33.792;151.032;2023-07-09T11:44:33;101352.59;;;16.51;50.90
81905;BME280;71370;-33.792;151.032;2023-07-09T11:45:40;101349.58;;;16.50;50.89
81905;BME280;71370;-33.792;151.032;2023-07-09T11:49:52;101337.06;;;16.47;50.82
81905;BME280;71370;-33.792;151.032;2023-07-09T11:51:08;101329.67;;;16.45;50.81
81905;BME280;71370;-33.792;151.032;2023-07-09T11:52:25;101331.07;;;16.46;50.78
81905;BME280;71370;-33.792;151.032;2023-07-09T11:53:41;101329.11;;;16.47;50.78
81905;BME280;71370;-33.792;151.032;2023-07-09T11:54:51;101326.42;;;16.47;50.71
81905;BME280;71370;-33.792;151.032;2023-07-09T11:55:58;101329.81;;;16.47;50.65
81905;BME280;71370;-33.792;151.032;2023-07-09T11:57:11;101329.29;;;16.46;50.58
81905;BME280;71370;-33.792;151.032;2023-07-09T11:58:20;101333.38;;;16.46;50.62
81905;BME280;71370;-33.792;151.032;2023-07-09T11:59:27;101335.02;;;16.45;50.50
81905;BME280;71370;-33.792;151.032;2023-07-09T12:00:40;101336.30;;;16.43;50.63
